createdAt,value
2023-05-04T00:02:02.350Z,4.68
2023-05-04T00:07:07.275Z,4.63
2023-05-04T00:12:10.829Z,4.50
2023-05-04T00:17:14.264Z,4.45
2023-05-04T00:22:19.142Z,4.44
2023-05-04T00:27:22.275Z,4.42
2023-05-04T00:32:25.916Z,4.36
2023-05-04T00:37:30.830Z,4.37
2023-05-04T00:42:34.093Z,4.37
2023-05-04T00:47:37.791Z,4.31
2023-05-04T00:52:45.209Z,4.20
2023-05-04T00:57:50.493Z,4.16
2023-05-04T01:02:54.115Z,4.10
2023-05-04T01:08:03.449Z,4.05
2023-05-04T01:13:11.111Z,3.93
2023-05-04T01:18:14.775Z,3.79
2023-05-04T01:23:19.724Z,3.62
2023-05-04T01:28:28.552Z,3.48
2023-05-04T01:33:33.421Z,3.27
2023-05-04T01:38:38.025Z,3.29
2023-05-04T01:43:41.770Z,3.24
2023-05-04T01:48:45.199Z,3.10
2023-05-04T01:53:50.110Z,3.09
2023-05-04T01:58:53.258Z,3.04
2023-05-04T02:03:56.873Z,3.08
2023-05-04T02:09:01.921Z,3.17
2023-05-04T02:14:05.608Z,3.41
2023-05-04T02:19:09.200Z,3.60
2023-05-04T02:24:14.410Z,3.72
2023-05-04T02:29:17.988Z,3.74
2023-05-04T02:34:21.708Z,3.73
2023-05-04T02:39:26.693Z,3.71
2023-05-04T02:44:29.867Z,3.86
2023-05-04T02:49:33.340Z,3.90
2023-05-04T02:54:39.298Z,4.16
2023-05-04T02:59:42.787Z,4.30
2023-05-04T03:04:46.268Z,4.48
2023-05-04T03:09:51.240Z,5.20
2023-05-04T03:14:54.455Z,5.46
2023-05-04T03:19:57.902Z,5.51
2023-05-04T03:25:02.884Z,5.99
2023-05-04T03:30:08.816Z,6.25
2023-05-04T03:35:12.943Z,6.58
2023-05-04T03:40:22.479Z,7.12
2023-05-04T03:45:28.587Z,8.20
2023-05-04T03:50:32.141Z,15.08
2023-05-04T03:55:37.320Z,20.25
2023-05-04T04:00:40.942Z,22.81
2023-05-04T04:05:44.425Z,24.99
2023-05-04T04:10:49.290Z,26.73
2023-05-04T04:15:52.861Z,27.55
2023-05-04T04:20:56.481Z,28.19
2023-05-04T04:26:01.885Z,29.04
2023-05-04T04:31:05.783Z,30.05
2023-05-04T04:36:10.631Z,31.71
2023-05-04T04:41:15.969Z,32.90
2023-05-04T04:46:19.498Z,33.83
2023-05-04T04:51:23.173Z,34.44
2023-05-04T04:56:28.204Z,34.73
2023-05-04T05:01:31.805Z,35.86
2023-05-04T05:06:35.478Z,36.87
2023-05-04T05:11:40.406Z,37.57
2023-05-04T05:16:43.915Z,38.32
2023-05-04T05:21:48.003Z,38.28
2023-05-04T05:26:53.787Z,38.47
2023-05-04T05:31:57.459Z,38.32
2023-05-04T05:37:01.137Z,37.80
2023-05-04T05:42:06.765Z,38.44
2023-05-04T05:47:10.238Z,39.34
2023-05-04T05:52:13.723Z,39.29
2023-05-04T05:57:18.597Z,40.48
2023-05-04T06:02:22.208Z,40.86
2023-05-04T06:07:26.191Z,40.52
2023-05-04T06:12:31.289Z,40.82
2023-05-04T06:17:35.036Z,41.00
2023-05-04T06:22:38.582Z,39.57
2023-05-04T06:27:43.504Z,40.86
2023-05-04T06:32:47.218Z,40.94
2023-05-04T06:43:01.173Z,42.05
2023-05-04T06:48:05.524Z,42.02
2023-05-04T06:53:10.369Z,41.89
2023-05-04T06:58:15.393Z,39.26
2023-05-04T07:03:19.060Z,40.27
2023-05-04T07:08:22.575Z,40.49
2023-05-04T07:13:27.543Z,36.68
2023-05-04T07:18:31.441Z,36.04
2023-05-04T07:23:34.921Z,38.78
2023-05-04T07:28:43.954Z,39.68
2023-05-04T07:33:47.557Z,38.16
2023-05-04T07:38:51.517Z,38.29
2023-05-04T07:43:56.628Z,38.82
2023-05-04T07:49:00.091Z,37.61
2023-05-04T07:54:03.546Z,36.52
2023-05-04T07:59:08.443Z,34.74
2023-05-04T08:04:12.022Z,34.47
2023-05-04T08:09:15.512Z,35.45
2023-05-04T08:14:20.409Z,33.72
2023-05-04T08:19:23.911Z,30.90
2023-05-04T08:24:27.416Z,29.58
2023-05-04T08:29:32.326Z,26.92
2023-05-04T08:34:36.681Z,24.31
2023-05-04T08:39:42.081Z,24.50
2023-05-04T08:44:47.276Z,24.01
2023-05-04T08:49:50.980Z,23.14
2023-05-04T08:54:56.062Z,22.98
2023-05-04T09:00:02.011Z,22.92
2023-05-04T09:05:09.557Z,21.78
2023-05-04T09:10:13.251Z,20.77
2023-05-04T09:15:19.262Z,20.93
2023-05-04T09:20:22.981Z,20.78
2023-05-04T09:25:26.513Z,20.90
2023-05-04T09:30:32.075Z,20.66
2023-05-04T09:35:35.533Z,21.01
2023-05-04T09:40:41.549Z,21.63
2023-05-04T09:45:48.345Z,21.57
2023-05-04T09:50:56.263Z,20.50
2023-05-04T09:56:11.445Z,19.91
2023-05-04T10:01:17.106Z,19.82
2023-05-04T10:06:22.600Z,19.71
2023-05-04T10:11:27.513Z,19.92
2023-05-04T10:16:45.748Z,19.39
2023-05-04T10:22:02.985Z,19.55
2023-05-04T10:27:11.555Z,20.08
2023-05-04T10:32:23.758Z,19.04
2023-05-04T10:37:27.414Z,18.95
2023-05-04T10:42:42.010Z,19.26
2023-05-04T10:47:46.623Z,19.26
2023-05-04T10:53:16.955Z,18.69
2023-05-04T10:58:29.820Z,18.43
2023-05-04T11:03:42.241Z,18.50
2023-05-04T11:08:48.245Z,18.44
2023-05-04T11:13:52.006Z,17.78
2023-05-04T11:18:56.899Z,17.75
2023-05-04T11:24:02.636Z,17.97
2023-05-04T11:29:14.124Z,17.82
2023-05-04T11:34:22.356Z,18.39
2023-05-04T11:39:27.400Z,18.97
2023-05-04T11:44:31.471Z,18.97
2023-05-04T11:49:36.567Z,18.88
2023-05-04T11:54:40.138Z,18.36
2023-05-04T11:59:50.287Z,17.86
2023-05-04T12:04:55.641Z,17.87
2023-05-04T12:09:59.105Z,18.35
2023-05-04T12:15:02.559Z,18.74
2023-05-04T12:20:10.368Z,19.29
2023-05-04T12:25:13.993Z,19.62
2023-05-04T12:30:18.123Z,19.03
2023-05-04T12:35:23.233Z,18.73
2023-05-04T12:40:28.753Z,18.61
2023-05-04T12:45:32.580Z,18.15
2023-05-04T12:50:37.649Z,18.51
2023-05-04T12:55:41.379Z,18.73
2023-05-04T13:00:46.118Z,18.87
2023-05-04T13:05:51.414Z,19.32
2023-05-04T13:10:55.166Z,19.21
2023-05-04T13:15:59.052Z,19.19
2023-05-04T13:21:04.226Z,19.12
2023-05-04T13:26:07.736Z,18.97
2023-05-04T13:31:11.487Z,19.36
2023-05-04T13:36:17.286Z,19.58
2023-05-04T13:41:20.810Z,19.38
2023-05-04T13:46:24.436Z,19.10
2023-05-04T13:51:29.378Z,19.05
2023-05-04T13:56:32.890Z,18.92
2023-05-04T14:01:36.421Z,18.94
2023-05-04T14:06:41.320Z,18.59
2023-05-04T14:11:45.017Z,18.53
2023-05-04T14:16:48.532Z,18.39
2023-05-04T14:21:53.518Z,18.07
2023-05-04T14:26:57.102Z,17.66
2023-05-04T14:32:00.679Z,17.37
2023-05-04T14:37:05.654Z,17.38
2023-05-04T14:42:09.460Z,17.35
2023-05-04T14:47:13.223Z,17.10
2023-05-04T14:52:18.415Z,17.04
2023-05-04T14:57:21.890Z,16.64
2023-05-04T15:02:25.545Z,16.30
2023-05-04T15:07:30.514Z,16.27
2023-05-04T15:12:34.090Z,15.94
2023-05-04T15:17:37.666Z,15.86
2023-05-04T15:22:42.891Z,15.86
2023-05-04T15:27:46.494Z,15.95
2023-05-04T15:32:49.975Z,16.13
2023-05-04T15:37:54.927Z,15.99
2023-05-04T15:42:58.498Z,15.77
2023-05-04T15:48:02.076Z,15.57
2023-05-04T15:53:07.055Z,15.50
2023-05-04T15:58:10.769Z,15.49
2023-05-04T16:03:15.424Z,15.47
2023-05-04T16:08:20.392Z,15.57
2023-05-04T16:13:23.970Z,15.51
2023-05-04T16:18:27.536Z,15.45
2023-05-04T16:23:32.496Z,15.36
2023-05-04T16:28:36.948Z,15.26
2023-05-04T16:33:41.520Z,15.07
2023-05-04T16:38:46.420Z,14.87
2023-05-04T16:43:50.261Z,14.85
2023-05-04T16:48:54.747Z,14.81
2023-05-04T16:53:59.467Z,14.79
2023-05-04T16:59:02.862Z,14.69
2023-05-04T17:04:06.430Z,14.50
2023-05-04T17:09:11.359Z,14.40
2023-05-04T17:14:14.979Z,14.28
2023-05-04T17:19:18.451Z,14.14
2023-05-04T17:24:23.313Z,13.90
2023-05-04T17:29:26.858Z,13.77
2023-05-04T17:34:30.302Z,13.57
2023-05-04T17:39:35.249Z,13.41
2023-05-04T17:44:38.745Z,13.08
2023-05-04T17:49:42.193Z,12.97
2023-05-04T17:54:47.126Z,13.01
2023-05-04T17:59:50.648Z,12.74
2023-05-04T18:04:54.108Z,12.45
2023-05-04T18:09:59.028Z,12.40
2023-05-04T18:15:02.583Z,12.35
2023-05-04T18:20:10.334Z,12.32
2023-05-04T18:25:16.370Z,12.18
2023-05-04T18:30:20.206Z,11.96
2023-05-04T18:35:23.718Z,11.94
2023-05-04T18:40:28.594Z,11.90
2023-05-04T18:45:32.183Z,11.85
2023-05-04T18:50:36.200Z,11.90
2023-05-04T18:55:41.108Z,11.88
2023-05-04T19:00:46.474Z,11.78
2023-05-04T19:05:50.066Z,11.71
2023-05-04T19:10:59.241Z,11.45
2023-05-04T19:16:02.806Z,11.22
2023-05-04T19:21:06.920Z,11.03
2023-05-04T19:26:11.794Z,10.82
2023-05-04T19:31:15.755Z,10.48
2023-05-04T19:36:19.274Z,10.25
2023-05-04T19:41:24.178Z,10.07
2023-05-04T19:46:27.751Z,9.88
2023-05-04T19:51:31.578Z,9.64
2023-05-04T19:56:36.547Z,9.50
2023-05-04T20:01:39.997Z,9.40
2023-05-04T20:06:43.440Z,9.30
2023-05-04T20:11:48.480Z,9.27
2023-05-04T20:16:52.728Z,9.20
2023-05-04T20:21:56.515Z,9.17
2023-05-04T20:27:01.467Z,9.14
2023-05-04T20:32:05.832Z,9.12
2023-05-04T20:37:09.625Z,9.13
2023-05-04T20:42:14.689Z,9.20
2023-05-04T20:47:18.631Z,9.19
2023-05-04T20:52:22.272Z,9.07
2023-05-04T20:57:27.261Z,8.99
2023-05-04T21:02:31.349Z,8.76
2023-05-04T21:07:34.934Z,8.53
2023-05-04T21:12:39.880Z,8.48
2023-05-04T21:17:43.396Z,8.40
2023-05-04T21:22:46.966Z,8.32
2023-05-04T21:27:51.962Z,8.21
2023-05-04T21:32:55.491Z,8.10
2023-05-04T21:37:59.870Z,8.01
2023-05-04T21:43:04.726Z,7.82
2023-05-04T21:48:08.448Z,7.87
2023-05-04T21:53:11.956Z,7.86
2023-05-04T21:58:17.384Z,7.80
2023-05-04T22:03:21.122Z,7.74
2023-05-04T22:08:24.836Z,7.61
2023-05-04T22:13:29.948Z,7.72
2023-05-04T22:18:33.441Z,7.66
2023-05-04T22:23:37.312Z,7.72
2023-05-04T22:28:42.179Z,7.56
2023-05-04T22:33:45.306Z,7.46
2023-05-04T22:38:48.679Z,7.32
2023-05-04T22:43:53.488Z,7.26
2023-05-04T22:48:56.956Z,7.18
2023-05-04T22:54:00.368Z,7.21
2023-05-04T22:59:06.411Z,7.27
2023-05-04T23:04:12.767Z,7.19
2023-05-04T23:09:16.634Z,7.14
2023-05-04T23:14:21.851Z,6.98
2023-05-04T23:19:25.305Z,6.94
2023-05-04T23:24:28.774Z,6.81
2023-05-04T23:29:33.700Z,6.65
2023-05-04T23:34:36.804Z,6.39
2023-05-04T23:39:40.294Z,6.22
2023-05-04T23:44:45.101Z,6.22
2023-05-04T23:49:48.608Z,6.19
2023-05-04T23:54:54.723Z,6.23
2023-05-04T23:59:59.505Z,6.21
